sensor_id;sensor_type;location;lat;lon;timestamp;P1;durP1;ratioP1;P2;durP2;ratioP2
29402;SDS011;16382;59.942;30.472;2023-02-12T00:01:53;2.70;;;1.10;;
29402;SDS011;16382;59.942;30.472;2023-02-12T00:04:20;4.05;;;1.52;;
29402;SDS011;16382;59.942;30.472;2023-02-12T00:06:47;5.00;;;1.35;;
29402;SDS011;16382;59.942;30.472;2023-02-12T00:09:14;4.18;;;1.13;;
29402;SDS011;16382;59.942;30.472;2023-02-12T00:11:41;6.00;;;1.20;;
29402;SDS011;16382;59.942;30.472;2023-02-12T00:14:08;4.45;;;1.00;;
29402;SDS011;16382;59.942;30.472;2023-02-12T00:16:35;2.60;;;0.90;;
29402;SDS011;16382;59.942;30.472;2023-02-12T00:19:04;4.32;;;0.90;;
29402;SDS011;16382;59.942;30.472;2023-02-12T00:21:31;2.20;;;1.05;;
29402;SDS011;16382;59.942;30.472;2023-02-12T00:23:59;4.95;;;1.20;;
29402;SDS011;16382;59.942;30.472;2023-02-12T00:26:27;8.05;;;1.58;;
29402;SDS011;16382;59.942;30.472;2023-02-12T00:28:54;3.75;;;1.08;;
29402;SDS011;16382;59.942;30.472;2023-02-12T00:31:22;3.33;;;2.10;;
29402;SDS011;16382;59.942;30.472;2023-02-12T00:33:50;7.15;;;2.00;;
29402;SDS011;16382;59.942;30.472;2023-02-12T00:36:20;4.25;;;1.27;;
29402;SDS011;16382;59.942;30.472;2023-02-12T00:38:49;3.33;;;1.05;;
29402;SDS011;16382;59.942;30.472;2023-02-12T00:41:18;5.78;;;1.23;;
29402;SDS011;16382;59.942;30.472;2023-02-12T00:43:45;5.32;;;2.17;;
29402;SDS011;16382;59.942;30.472;2023-02-12T00:46:13;5.65;;;1.40;;
29402;SDS011;16382;59.942;30.472;2023-02-12T00:48:42;3.75;;;1.40;;
29402;SDS011;16382;59.942;30.472;2023-02-12T00:51:09;2.97;;;1.30;;
29402;SDS011;16382;59.942;30.472;2023-02-12T00:53:38;7.22;;;1.30;;
29402;SDS011;16382;59.942;30.472;2023-02-12T00:56:06;2.58;;;1.77;;
29402;SDS011;16382;59.942;30.472;2023-02-12T00:58:33;7.85;;;1.13;;
29402;SDS011;16382;59.942;30.472;2023-02-12T01:01:01;5.32;;;1.10;;
29402;SDS011;16382;59.942;30.472;2023-02-12T01:03:28;2.65;;;1.13;;
29402;SDS011;16382;59.942;30.472;2023-02-12T01:05:57;3.35;;;1.20;;
29402;SDS011;16382;59.942;30.472;2023-02-12T01:08:24;5.15;;;1.30;;
29402;SDS011;16382;59.942;30.472;2023-02-12T01:10:56;5.03;;;1.50;;
29402;SDS011;16382;59.942;30.472;2023-02-12T01:13:26;4.28;;;1.33;;
29402;SDS011;16382;59.942;30.472;2023-02-12T01:16:01;4.03;;;1.33;;
29402;SDS011;16382;59.942;30.472;2023-02-12T01:18:31;5.50;;;1.30;;
29402;SDS011;16382;59.942;30.472;2023-02-12T01:20:58;3.65;;;1.05;;
29402;SDS011;16382;59.942;30.472;2023-02-12T01:23:25;3.67;;;1.67;;
29402;SDS011;16382;59.942;30.472;2023-02-12T01:25:53;5.75;;;1.25;;
29402;SDS011;16382;59.942;30.472;2023-02-12T01:28:21;5.43;;;1.23;;
29402;SDS011;16382;59.942;30.472;2023-02-12T01:30:49;3.90;;;1.60;;
29402;SDS011;16382;59.942;30.472;2023-02-12T01:33:16;5.57;;;1.65;;
29402;SDS011;16382;59.942;30.472;2023-02-12T01:35:43;5.18;;;1.48;;
29402;SDS011;16382;59.942;30.472;2023-02-12T01:38:10;3.22;;;1.70;;
29402;SDS011;16382;59.942;30.472;2023-02-12T01:40:38;5.95;;;2.00;;
29402;SDS011;16382;59.942;30.472;2023-02-12T01:43:05;5.72;;;1.83;;
29402;SDS011;16382;59.942;30.472;2023-02-12T01:45:48;2.33;;;1.63;;
29402;SDS011;16382;59.942;30.472;2023-02-12T01:48:18;8.50;;;1.20;;
29402;SDS011;16382;59.942;30.472;2023-02-12T01:50:49;6.88;;;1.35;;
29402;SDS011;16382;59.942;30.472;2023-02-12T01:53:18;5.38;;;1.10;;
29402;SDS011;16382;59.942;30.472;2023-02-12T01:55:50;3.70;;;1.30;;
29402;SDS011;16382;59.942;30.472;2023-02-12T01:58:20;4.63;;;1.25;;
29402;SDS011;16382;59.942;30.472;2023-02-12T02:00:50;2.67;;;1.13;;
29402;SDS011;16382;59.942;30.472;2023-02-12T02:03:17;2.88;;;1.08;;
29402;SDS011;16382;59.942;30.472;2023-02-12T02:05:46;8.00;;;1.92;;
29402;SDS011;16382;59.942;30.472;2023-02-12T02:08:19;8.73;;;2.22;;
29402;SDS011;16382;59.942;30.472;2023-02-12T02:10:46;3.92;;;1.30;;
29402;SDS011;16382;59.942;30.472;2023-02-12T02:13:13;3.78;;;1.17;;
29402;SDS011;16382;59.942;30.472;2023-02-12T02:16:20;4.00;;;1.27;;
29402;SDS011;16382;59.942;30.472;2023-02-12T02:24:36;5.35;;;1.60;;
29402;SDS011;16382;59.942;30.472;2023-02-12T02:27:23;8.75;;;1.58;;
29402;SDS011;16382;59.942;30.472;2023-02-12T02:32:49;2.85;;;1.42;;
29402;SDS011;16382;59.942;30.472;2023-02-12T02:35:23;3.42;;;2.10;;
29402;SDS011;16382;59.942;30.472;2023-02-12T02:37:57;6.38;;;1.92;;
29402;SDS011;16382;59.942;30.472;2023-02-12T02:40:35;6.65;;;1.65;;
29402;SDS011;16382;59.942;30.472;2023-02-12T02:43:08;7.32;;;1.95;;
29402;SDS011;16382;59.942;30.472;2023-02-12T02:45:44;3.83;;;1.90;;
29402;SDS011;16382;59.942;30.472;2023-02-12T02:50:43;2.83;;;1.45;;
29402;SDS011;16382;59.942;30.472;2023-02-12T02:53:15;6.10;;;1.97;;
29402;SDS011;16382;59.942;30.472;2023-02-12T02:55:46;8.55;;;2.10;;
29402;SDS011;16382;59.942;30.472;2023-02-12T02:58:17;9.40;;;3.05;;
29402;SDS011;16382;59.942;30.472;2023-02-12T03:00:51;6.22;;;2.40;;
29402;SDS011;16382;59.942;30.472;2023-02-12T03:03:25;5.00;;;2.55;;
29402;SDS011;16382;59.942;30.472;2023-02-12T03:05:57;4.65;;;1.92;;
29402;SDS011;16382;59.942;30.472;2023-02-12T03:08:28;4.90;;;2.17;;
29402;SDS011;16382;59.942;30.472;2023-02-12T03:11:02;5.80;;;2.00;;
29402;SDS011;16382;59.942;30.472;2023-02-12T03:13:34;7.15;;;2.17;;
29402;SDS011;16382;59.942;30.472;2023-02-12T03:16:08;5.93;;;1.97;;
29402;SDS011;16382;59.942;30.472;2023-02-12T03:18:40;4.97;;;2.33;;
29402;SDS011;16382;59.942;30.472;2023-02-12T03:21:11;6.82;;;2.28;;
29402;SDS011;16382;59.942;30.472;2023-02-12T03:23:45;5.57;;;2.00;;
29402;SDS011;16382;59.942;30.472;2023-02-12T03:26:16;6.97;;;2.90;;
29402;SDS011;16382;59.942;30.472;2023-02-12T03:28:48;5.85;;;2.17;;
29402;SDS011;16382;59.942;30.472;2023-02-12T03:31:19;7.88;;;2.25;;
29402;SDS011;16382;59.942;30.472;2023-02-12T03:33:56;6.15;;;2.22;;
29402;SDS011;16382;59.942;30.472;2023-02-12T03:36:32;6.78;;;2.15;;
29402;SDS011;16382;59.942;30.472;2023-02-12T03:39:05;5.88;;;2.25;;
29402;SDS011;16382;59.942;30.472;2023-02-12T03:41:37;4.90;;;2.63;;
29402;SDS011;16382;59.942;30.472;2023-02-12T03:44:10;8.20;;;2.20;;
29402;SDS011;16382;59.942;30.472;2023-02-12T03:46:48;5.03;;;2.08;;
29402;SDS011;16382;59.942;30.472;2023-02-12T03:49:23;4.97;;;2.35;;
29402;SDS011;16382;59.942;30.472;2023-02-12T03:51:54;3.42;;;1.92;;
29402;SDS011;16382;59.942;30.472;2023-02-12T03:54:22;6.15;;;2.10;;
29402;SDS011;16382;59.942;30.472;2023-02-12T03:56:50;4.28;;;2.30;;
29402;SDS011;16382;59.942;30.472;2023-02-12T03:59:23;8.32;;;2.17;;
29402;SDS011;16382;59.942;30.472;2023-02-12T04:01:53;4.15;;;2.13;;
29402;SDS011;16382;59.942;30.472;2023-02-12T04:04:24;3.93;;;1.80;;
29402;SDS011;16382;59.942;30.472;2023-02-12T04:06:52;4.80;;;2.55;;
29402;SDS011;16382;59.942;30.472;2023-02-12T04:09:20;7.53;;;1.90;;
29402;SDS011;16382;59.942;30.472;2023-02-12T04:11:53;5.43;;;1.75;;
29402;SDS011;16382;59.942;30.472;2023-02-12T04:14:31;7.18;;;1.92;;
29402;SDS011;16382;59.942;30.472;2023-02-12T04:17:11;5.05;;;1.70;;
29402;SDS011;16382;59.942;30.472;2023-02-12T04:19:47;3.13;;;2.00;;
29402;SDS011;16382;59.942;30.472;2023-02-12T04:22:26;4.22;;;1.67;;
29402;SDS011;16382;59.942;30.472;2023-02-12T04:25:05;5.80;;;1.75;;
29402;SDS011;16382;59.942;30.472;2023-02-12T04:27:43;5.93;;;1.50;;
29402;SDS011;16382;59.942;30.472;2023-02-12T04:30:20;5.10;;;2.20;;
29402;SDS011;16382;59.942;30.472;2023-02-12T04:32:51;4.15;;;1.90;;
29402;SDS011;16382;59.942;30.472;2023-02-12T04:35:23;5.15;;;1.85;;
29402;SDS011;16382;59.942;30.472;2023-02-12T04:37:56;8.27;;;1.67;;
29402;SDS011;16382;59.942;30.472;2023-02-12T04:40:27;8.93;;;1.70;;
29402;SDS011;16382;59.942;30.472;2023-02-12T04:42:54;5.00;;;2.15;;
29402;SDS011;16382;59.942;30.472;2023-02-12T04:45:23;5.35;;;1.60;;
29402;SDS011;16382;59.942;30.472;2023-02-12T04:47:53;7.72;;;1.98;;
29402;SDS011;16382;59.942;30.472;2023-02-12T04:50:21;5.47;;;1.80;;
29402;SDS011;16382;59.942;30.472;2023-02-12T04:52:48;2.33;;;1.67;;
29402;SDS011;16382;59.942;30.472;2023-02-12T04:55:15;4.80;;;2.05;;
29402;SDS011;16382;59.942;30.472;2023-02-12T04:57:43;5.55;;;1.85;;
29402;SDS011;16382;59.942;30.472;2023-02-12T05:00:11;6.70;;;2.15;;
29402;SDS011;16382;59.942;30.472;2023-02-12T05:02:40;3.22;;;1.58;;
29402;SDS011;16382;59.942;30.472;2023-02-12T05:05:09;4.72;;;1.60;;
29402;SDS011;16382;59.942;30.472;2023-02-12T05:07:36;7.30;;;2.40;;
29402;SDS011;16382;59.942;30.472;2023-02-12T05:10:03;5.93;;;2.03;;
29402;SDS011;16382;59.942;30.472;2023-02-12T05:12:31;5.05;;;1.75;;
29402;SDS011;16382;59.942;30.472;2023-02-12T05:14:58;2.90;;;1.77;;
29402;SDS011;16382;59.942;30.472;2023-02-12T05:17:25;5.07;;;2.25;;
29402;SDS011;16382;59.942;30.472;2023-02-12T05:19:52;6.45;;;1.98;;
29402;SDS011;16382;59.942;30.472;2023-02-12T05:22:20;9.55;;;2.25;;
29402;SDS011;16382;59.942;30.472;2023-02-12T05:24:48;6.63;;;1.95;;
29402;SDS011;16382;59.942;30.472;2023-02-12T05:27:15;5.10;;;1.85;;
29402;SDS011;16382;59.942;30.472;2023-02-12T05:29:42;12.48;;;2.53;;
29402;SDS011;16382;59.942;30.472;2023-02-12T05:32:09;8.50;;;3.58;;
29402;SDS011;16382;59.942;30.472;2023-02-12T05:34:36;8.00;;;4.15;;
29402;SDS011;16382;59.942;30.472;2023-02-12T05:37:04;10.30;;;7.03;;
29402;SDS011;16382;59.942;30.472;2023-02-12T05:39:32;12.85;;;5.95;;
29402;SDS011;16382;59.942;30.472;2023-02-12T05:41:59;8.95;;;5.13;;
29402;SDS011;16382;59.942;30.472;2023-02-12T05:44:26;9.52;;;5.40;;
29402;SDS011;16382;59.942;30.472;2023-02-12T05:46:53;9.77;;;5.20;;
29402;SDS011;16382;59.942;30.472;2023-02-12T05:49:21;5.82;;;3.90;;
29402;SDS011;16382;59.942;30.472;2023-02-12T05:51:48;15.57;;;7.38;;
29402;SDS011;16382;59.942;30.472;2023-02-12T05:54:15;15.93;;;9.32;;
29402;SDS011;16382;59.942;30.472;2023-02-12T05:56:45;14.65;;;8.02;;
29402;SDS011;16382;59.942;30.472;2023-02-12T05:59:13;9.40;;;6.13;;
29402;SDS011;16382;59.942;30.472;2023-02-12T06:01:42;9.82;;;5.63;;
29402;SDS011;16382;59.942;30.472;2023-02-12T06:04:12;9.18;;;4.90;;
29402;SDS011;16382;59.942;30.472;2023-02-12T06:06:40;12.25;;;4.95;;
29402;SDS011;16382;59.942;30.472;2023-02-12T06:09:08;6.50;;;3.60;;
29402;SDS011;16382;59.942;30.472;2023-02-12T06:11:36;5.82;;;3.35;;
29402;SDS011;16382;59.942;30.472;2023-02-12T06:14:09;8.07;;;2.85;;
29402;SDS011;16382;59.942;30.472;2023-02-12T06:16:39;9.27;;;3.45;;
29402;SDS011;16382;59.942;30.472;2023-02-12T06:19:06;9.85;;;5.13;;
29402;SDS011;16382;59.942;30.472;2023-02-12T06:21:35;6.70;;;3.65;;
29402;SDS011;16382;59.942;30.472;2023-02-12T06:24:03;8.68;;;5.13;;
29402;SDS011;16382;59.942;30.472;2023-02-12T06:26:31;12.82;;;6.43;;
29402;SDS011;16382;59.942;30.472;2023-02-12T06:28:59;10.35;;;6.38;;
29402;SDS011;16382;59.942;30.472;2023-02-12T06:31:29;15.02;;;6.70;;
29402;SDS011;16382;59.942;30.472;2023-02-12T06:33:59;9.48;;;4.00;;
29402;SDS011;16382;59.942;30.472;2023-02-12T06:36:28;5.25;;;3.03;;
29402;SDS011;16382;59.942;30.472;2023-02-12T06:38:56;4.97;;;2.30;;
29402;SDS011;16382;59.942;30.472;2023-02-12T06:41:23;5.47;;;2.10;;
29402;SDS011;16382;59.942;30.472;2023-02-12T06:43:50;5.78;;;1.98;;
29402;SDS011;16382;59.942;30.472;2023-02-12T06:46:18;4.47;;;2.10;;
29402;SDS011;16382;59.942;30.472;2023-02-12T06:48:47;3.60;;;1.73;;
29402;SDS011;16382;59.942;30.472;2023-02-12T06:51:15;7.63;;;2.03;;
29402;SDS011;16382;59.942;30.472;2023-02-12T06:53:46;2.05;;;0.88;;
29402;SDS011;16382;59.942;30.472;2023-02-12T06:56:13;3.60;;;1.20;;
29402;SDS011;16382;59.942;30.472;2023-02-12T06:58:42;4.68;;;1.30;;
29402;SDS011;16382;59.942;30.472;2023-02-12T07:01:11;5.45;;;1.23;;
29402;SDS011;16382;59.942;30.472;2023-02-12T07:03:42;5.97;;;1.70;;
29402;SDS011;16382;59.942;30.472;2023-02-12T07:06:14;5.50;;;1.45;;
29402;SDS011;16382;59.942;30.472;2023-02-12T07:08:42;6.22;;;1.70;;
29402;SDS011;16382;59.942;30.472;2023-02-12T07:11:10;2.45;;;1.20;;
29402;SDS011;16382;59.942;30.472;2023-02-12T07:13:39;5.45;;;1.63;;
29402;SDS011;16382;59.942;30.472;2023-02-12T07:16:08;4.95;;;1.85;;
29402;SDS011;16382;59.942;30.472;2023-02-12T07:18:37;7.30;;;1.73;;
29402;SDS011;16382;59.942;30.472;2023-02-12T07:21:06;4.03;;;1.73;;
29402;SDS011;16382;59.942;30.472;2023-02-12T07:23:44;4.30;;;1.50;;
29402;SDS011;16382;59.942;30.472;2023-02-12T07:26:14;6.15;;;3.38;;
29402;SDS011;16382;59.942;30.472;2023-02-12T07:28:41;5.63;;;2.00;;
29402;SDS011;16382;59.942;30.472;2023-02-12T07:31:10;5.82;;;2.30;;
29402;SDS011;16382;59.942;30.472;2023-02-12T07:33:39;2.97;;;1.30;;
29402;SDS011;16382;59.942;30.472;2023-02-12T07:36:08;3.47;;;1.17;;
29402;SDS011;16382;59.942;30.472;2023-02-12T07:38:38;4.10;;;1.15;;
29402;SDS011;16382;59.942;30.472;2023-02-12T07:41:08;8.68;;;1.30;;
29402;SDS011;16382;59.942;30.472;2023-02-12T07:43:38;5.28;;;1.17;;
29402;SDS011;16382;59.942;30.472;2023-02-12T07:46:07;3.70;;;1.30;;
29402;SDS011;16382;59.942;30.472;2023-02-12T07:48:35;3.08;;;1.17;;
29402;SDS011;16382;59.942;30.472;2023-02-12T07:51:04;2.92;;;0.80;;
29402;SDS011;16382;59.942;30.472;2023-02-12T07:53:32;2.72;;;1.10;;
29402;SDS011;16382;59.942;30.472;2023-02-12T07:56:05;2.00;;;1.33;;
29402;SDS011;16382;59.942;30.472;2023-02-12T07:58:34;6.82;;;1.20;;
29402;SDS011;16382;59.942;30.472;2023-02-12T08:01:09;6.22;;;1.67;;
29402;SDS011;16382;59.942;30.472;2023-02-12T08:03:38;2.10;;;1.17;;
29402;SDS011;16382;59.942;30.472;2023-02-12T08:06:06;3.80;;;1.10;;
29402;SDS011;16382;59.942;30.472;2023-02-12T08:08:34;6.15;;;1.33;;
29402;SDS011;16382;59.942;30.472;2023-02-12T08:11:03;4.95;;;1.52;;
29402;SDS011;16382;59.942;30.472;2023-02-12T08:13:33;2.85;;;1.25;;
29402;SDS011;16382;59.942;30.472;2023-02-12T08:16:01;2.40;;;1.48;;
29402;SDS011;16382;59.942;30.472;2023-02-12T08:18:30;5.18;;;1.50;;
29402;SDS011;16382;59.942;30.472;2023-02-12T08:21:00;3.72;;;1.48;;
29402;SDS011;16382;59.942;30.472;2023-02-12T08:23:29;3.08;;;1.45;;
29402;SDS011;16382;59.942;30.472;2023-02-12T08:26:03;2.00;;;1.25;;
29402;SDS011;16382;59.942;30.472;2023-02-12T08:28:34;3.22;;;1.73;;
29402;SDS011;16382;59.942;30.472;2023-02-12T08:31:03;2.53;;;1.27;;
29402;SDS011;16382;59.942;30.472;2023-02-12T08:33:32;4.05;;;1.45;;
29402;SDS011;16382;59.942;30.472;2023-02-12T08:36:00;5.30;;;2.90;;
29402;SDS011;16382;59.942;30.472;2023-02-12T08:38:29;2.78;;;1.88;;
29402;SDS011;16382;59.942;30.472;2023-02-12T08:40:59;4.60;;;2.05;;
29402;SDS011;16382;59.942;30.472;2023-02-12T08:43:28;3.17;;;1.75;;
29402;SDS011;16382;59.942;30.472;2023-02-12T08:46:00;5.47;;;1.58;;
29402;SDS011;16382;59.942;30.472;2023-02-12T08:48:28;4.28;;;2.00;;
29402;SDS011;16382;59.942;30.472;2023-02-12T08:50:55;3.78;;;1.70;;
29402;SDS011;16382;59.942;30.472;2023-02-12T08:53:22;6.88;;;2.03;;
29402;SDS011;16382;59.942;30.472;2023-02-12T08:55:50;3.90;;;1.55;;
29402;SDS011;16382;59.942;30.472;2023-02-12T08:58:17;4.38;;;1.88;;
29402;SDS011;16382;59.942;30.472;2023-02-12T09:00:45;2.92;;;1.80;;
29402;SDS011;16382;59.942;30.472;2023-02-12T09:03:13;3.92;;;1.67;;
29402;SDS011;16382;59.942;30.472;2023-02-12T09:05:40;3.47;;;1.25;;
29402;SDS011;16382;59.942;30.472;2023-02-12T09:08:10;3.45;;;1.30;;
29402;SDS011;16382;59.942;30.472;2023-02-12T09:10:38;4.30;;;1.52;;
29402;SDS011;16382;59.942;30.472;2023-02-12T09:13:06;3.38;;;1.65;;
29402;SDS011;16382;59.942;30.472;2023-02-12T09:15:35;4.35;;;1.73;;
29402;SDS011;16382;59.942;30.472;2023-02-12T09:18:05;5.53;;;1.83;;
29402;SDS011;16382;59.942;30.472;2023-02-12T09:20:32;4.03;;;1.90;;
29402;SDS011;16382;59.942;30.472;2023-02-12T09:23:02;3.78;;;1.65;;
29402;SDS011;16382;59.942;30.472;2023-02-12T09:25:30;3.78;;;1.10;;
29402;SDS011;16382;59.942;30.472;2023-02-12T09:27:58;3.55;;;1.50;;
29402;SDS011;16382;59.942;30.472;2023-02-12T09:30:26;13.18;;;8.25;;
29402;SDS011;16382;59.942;30.472;2023-02-12T09:32:53;17.13;;;11.52;;
29402;SDS011;16382;59.942;30.472;2023-02-12T09:35:24;11.38;;;8.13;;
29402;SDS011;16382;59.942;30.472;2023-02-12T09:37:51;10.55;;;7.35;;
29402;SDS011;16382;59.942;30.472;2023-02-12T09:40:19;11.20;;;5.30;;
29402;SDS011;16382;59.942;30.472;2023-02-12T09:42:58;8.73;;;4.50;;
29402;SDS011;16382;59.942;30.472;2023-02-12T09:45:32;12.93;;;7.28;;
29402;SDS011;16382;59.942;30.472;2023-02-12T09:50:41;8.98;;;4.93;;
29402;SDS011;16382;59.942;30.472;2023-02-12T09:53:16;5.65;;;3.17;;
29402;SDS011;16382;59.942;30.472;2023-02-12T09:55:46;4.57;;;2.40;;
29402;SDS011;16382;59.942;30.472;2023-02-12T09:58:14;5.90;;;1.90;;
29402;SDS011;16382;59.942;30.472;2023-02-12T10:00:45;5.10;;;1.77;;
29402;SDS011;16382;59.942;30.472;2023-02-12T10:03:14;2.30;;;1.75;;
29402;SDS011;16382;59.942;30.472;2023-02-12T10:05:46;7.82;;;2.20;;
29402;SDS011;16382;59.942;30.472;2023-02-12T10:08:29;7.97;;;2.22;;
29402;SDS011;16382;59.942;30.472;2023-02-12T10:11:12;6.60;;;1.90;;
29402;SDS011;16382;59.942;30.472;2023-02-12T10:13:51;6.05;;;3.55;;
29402;SDS011;16382;59.942;30.472;2023-02-12T10:16:33;4.45;;;2.72;;
29402;SDS011;16382;59.942;30.472;2023-02-12T10:19:13;6.32;;;1.92;;
29402;SDS011;16382;59.942;30.472;2023-02-12T10:21:57;6.35;;;2.30;;
29402;SDS011;16382;59.942;30.472;2023-02-12T10:24:45;6.85;;;2.15;;
29402;SDS011;16382;59.942;30.472;2023-02-12T10:27:24;4.57;;;1.80;;
29402;SDS011;16382;59.942;30.472;2023-02-12T10:30:13;3.42;;;1.63;;
29402;SDS011;16382;59.942;30.472;2023-02-12T10:32:49;5.82;;;2.20;;
29402;SDS011;16382;59.942;30.472;2023-02-12T10:35:22;5.00;;;2.25;;
29402;SDS011;16382;59.942;30.472;2023-02-12T10:37:53;4.30;;;1.95;;
29402;SDS011;16382;59.942;30.472;2023-02-12T10:40:24;10.80;;;2.47;;
29402;SDS011;16382;59.942;30.472;2023-02-12T10:42:54;4.90;;;2.35;;
29402;SDS011;16382;59.942;30.472;2023-02-12T10:45:24;6.57;;;2.30;;
29402;SDS011;16382;59.942;30.472;2023-02-12T10:48:00;5.22;;;2.22;;
29402;SDS011;16382;59.942;30.472;2023-02-12T10:50:35;6.32;;;2.30;;
29402;SDS011;16382;59.942;30.472;2023-02-12T10:53:28;5.22;;;2.00;;
29402;SDS011;16382;59.942;30.472;2023-02-12T10:58:51;5.32;;;2.53;;
29402;SDS011;16382;59.942;30.472;2023-02-12T11:01:24;8.93;;;2.33;;
29402;SDS011;16382;59.942;30.472;2023-02-12T11:03:53;11.20;;;4.45;;
29402;SDS011;16382;59.942;30.472;2023-02-12T11:06:26;8.07;;;2.72;;
29402;SDS011;16382;59.942;30.472;2023-02-12T11:08:57;7.57;;;2.00;;
29402;SDS011;16382;59.942;30.472;2023-02-12T11:11:25;5.97;;;2.33;;
29402;SDS011;16382;59.942;30.472;2023-02-12T11:13:55;6.45;;;2.33;;
29402;SDS011;16382;59.942;30.472;2023-02-12T11:16:26;6.65;;;2.08;;
29402;SDS011;16382;59.942;30.472;2023-02-12T11:18:58;10.45;;;2.30;;
29402;SDS011;16382;59.942;30.472;2023-02-12T11:21:26;7.30;;;2.08;;
29402;SDS011;16382;59.942;30.472;2023-02-12T11:23:53;4.65;;;1.80;;
29402;SDS011;16382;59.942;30.472;2023-02-12T11:26:23;5.53;;;2.03;;
29402;SDS011;16382;59.942;30.472;2023-02-12T11:28:54;8.50;;;2.53;;
29402;SDS011;16382;59.942;30.472;2023-02-12T11:31:25;10.15;;;2.60;;
29402;SDS011;16382;59.942;30.472;2023-02-12T11:34:07;4.28;;;2.25;;
29402;SDS011;16382;59.942;30.472;2023-02-12T11:36:40;5.72;;;1.80;;
29402;SDS011;16382;59.942;30.472;2023-02-12T11:39:15;6.50;;;1.92;;
29402;SDS011;16382;59.942;30.472;2023-02-12T11:41:49;6.10;;;1.80;;
29402;SDS011;16382;59.942;30.472;2023-02-12T11:44:18;7.27;;;1.80;;
29402;SDS011;16382;59.942;30.472;2023-02-12T11:46:48;3.08;;;1.67;;
29402;SDS011;16382;59.942;30.472;2023-02-12T11:49:18;4.93;;;2.03;;
29402;SDS011;16382;59.942;30.472;2023-02-12T11:51:48;4.20;;;2.13;;
29402;SDS011;16382;59.942;30.472;2023-02-12T11:54:17;6.35;;;2.03;;
29402;SDS011;16382;59.942;30.472;2023-02-12T11:56:51;3.97;;;1.90;;
29402;SDS011;16382;59.942;30.472;2023-02-12T11:59:31;7.70;;;1.98;;
29402;SDS011;16382;59.942;30.472;2023-02-12T12:02:02;6.03;;;2.42;;
29402;SDS011;16382;59.942;30.472;2023-02-12T12:04:38;10.43;;;2.30;;
29402;SDS011;16382;59.942;30.472;2023-02-12T12:07:10;4.40;;;2.08;;
29402;SDS011;16382;59.942;30.472;2023-02-12T12:09:43;6.22;;;2.10;;
29402;SDS011;16382;59.942;30.472;2023-02-12T12:12:16;5.40;;;1.90;;
29402;SDS011;16382;59.942;30.472;2023-02-12T12:14:49;6.35;;;2.15;;
29402;SDS011;16382;59.942;30.472;2023-02-12T12:17:40;7.32;;;2.90;;
29402;SDS011;16382;59.942;30.472;2023-02-12T12:20:29;9.18;;;2.30;;
29402;SDS011;16382;59.942;30.472;2023-02-12T12:23:03;6.03;;;2.28;;
29402;SDS011;16382;59.942;30.472;2023-02-12T12:28:10;4.15;;;1.70;;
29402;SDS011;16382;59.942;30.472;2023-02-12T12:30:56;12.07;;;2.25;;
29402;SDS011;16382;59.942;30.472;2023-02-12T12:33:34;4.20;;;2.35;;
29402;SDS011;16382;59.942;30.472;2023-02-12T12:36:16;10.25;;;3.78;;
29402;SDS011;16382;59.942;30.472;2023-02-12T12:39:12;6.40;;;2.78;;
29402;SDS011;16382;59.942;30.472;2023-02-12T12:41:47;5.78;;;2.80;;
29402;SDS011;16382;59.942;30.472;2023-02-12T12:44:49;6.97;;;2.58;;
29402;SDS011;16382;59.942;30.472;2023-02-12T12:47:32;9.60;;;3.20;;
29402;SDS011;16382;59.942;30.472;2023-02-12T12:50:19;12.30;;;5.13;;
29402;SDS011;16382;59.942;30.472;2023-02-12T12:53:06;10.07;;;5.05;;
29402;SDS011;16382;59.942;30.472;2023-02-12T12:55:50;10.38;;;4.10;;
29402;SDS011;16382;59.942;30.472;2023-02-12T12:58:32;7.95;;;5.60;;
29402;SDS011;16382;59.942;30.472;2023-02-12T13:07:08;13.10;;;4.32;;
29402;SDS011;16382;59.942;30.472;2023-02-12T13:09:51;14.35;;;4.53;;
29402;SDS011;16382;59.942;30.472;2023-02-12T13:12:34;11.18;;;4.13;;
29402;SDS011;16382;59.942;30.472;2023-02-12T13:15:22;10.43;;;3.53;;
29402;SDS011;16382;59.942;30.472;2023-02-12T13:18:00;17.95;;;6.28;;
29402;SDS011;16382;59.942;30.472;2023-02-12T13:20:45;15.85;;;5.97;;
29402;SDS011;16382;59.942;30.472;2023-02-12T13:23:21;10.85;;;4.13;;
29402;SDS011;16382;59.942;30.472;2023-02-12T13:25:59;12.75;;;4.15;;
29402;SDS011;16382;59.942;30.472;2023-02-12T13:28:33;11.65;;;4.07;;
29402;SDS011;16382;59.942;30.472;2023-02-12T13:31:05;8.07;;;3.03;;
29402;SDS011;16382;59.942;30.472;2023-02-12T13:33:38;7.85;;;3.75;;
29402;SDS011;16382;59.942;30.472;2023-02-12T13:36:09;9.98;;;3.38;;
29402;SDS011;16382;59.942;30.472;2023-02-12T13:38:39;7.45;;;3.78;;
29402;SDS011;16382;59.942;30.472;2023-02-12T13:41:11;13.15;;;4.85;;
29402;SDS011;16382;59.942;30.472;2023-02-12T13:43:43;8.80;;;4.43;;
29402;SDS011;16382;59.942;30.472;2023-02-12T13:46:22;8.82;;;4.63;;
29402;SDS011;16382;59.942;30.472;2023-02-12T13:48:59;15.45;;;6.35;;
29402;SDS011;16382;59.942;30.472;2023-02-12T13:51:36;13.68;;;5.32;;
29402;SDS011;16382;59.942;30.472;2023-02-12T13:54:12;10.32;;;4.70;;
29402;SDS011;16382;59.942;30.472;2023-02-12T13:56:50;11.48;;;4.55;;
29402;SDS011;16382;59.942;30.472;2023-02-12T13:59:42;9.50;;;4.53;;
29402;SDS011;16382;59.942;30.472;2023-02-12T14:05:20;10.48;;;4.63;;
29402;SDS011;16382;59.942;30.472;2023-02-12T14:07:54;9.25;;;4.20;;
29402;SDS011;16382;59.942;30.472;2023-02-12T14:10:29;8.15;;;4.38;;
29402;SDS011;16382;59.942;30.472;2023-02-12T14:13:09;8.90;;;4.45;;
29402;SDS011;16382;59.942;30.472;2023-02-12T14:15:41;11.23;;;5.03;;
29402;SDS011;16382;59.942;30.472;2023-02-12T14:29:58;13.55;;;6.80;;
29402;SDS011;16382;59.942;30.472;2023-02-12T14:32:56;12.90;;;6.20;;
29402;SDS011;16382;59.942;30.472;2023-02-12T14:35:45;13.00;;;6.82;;
29402;SDS011;16382;59.942;30.472;2023-02-12T14:41:26;11.55;;;6.07;;
29402;SDS011;16382;59.942;30.472;2023-02-12T14:47:14;11.02;;;4.82;;
29402;SDS011;16382;59.942;30.472;2023-02-12T14:50:04;17.17;;;7.90;;
29402;SDS011;16382;59.942;30.472;2023-02-12T14:52:38;19.02;;;9.57;;
29402;SDS011;16382;59.942;30.472;2023-02-12T14:55:18;17.65;;;7.32;;
29402;SDS011;16382;59.942;30.472;2023-02-12T14:57:53;13.20;;;6.28;;
29402;SDS011;16382;59.942;30.472;2023-02-12T15:00:28;14.05;;;6.85;;
29402;SDS011;16382;59.942;30.472;2023-02-12T15:03:08;12.38;;;5.07;;
29402;SDS011;16382;59.942;30.472;2023-02-12T15:06:06;9.45;;;5.43;;
29402;SDS011;16382;59.942;30.472;2023-02-12T15:08:44;12.75;;;4.97;;
29402;SDS011;16382;59.942;30.472;2023-02-12T15:13:55;15.40;;;4.85;;
29402;SDS011;16382;59.942;30.472;2023-02-12T15:16:28;15.13;;;5.35;;
29402;SDS011;16382;59.942;30.472;2023-02-12T15:19:05;8.73;;;3.65;;
29402;SDS011;16382;59.942;30.472;2023-02-12T15:21:43;6.13;;;2.95;;
29402;SDS011;16382;59.942;30.472;2023-02-12T15:24:12;7.28;;;3.72;;
29402;SDS011;16382;59.942;30.472;2023-02-12T15:26:47;8.52;;;3.72;;
29402;SDS011;16382;59.942;30.472;2023-02-12T15:29:18;8.85;;;3.30;;
29402;SDS011;16382;59.942;30.472;2023-02-12T15:31:50;4.68;;;2.78;;
29402;SDS011;16382;59.942;30.472;2023-02-12T15:34:21;9.25;;;3.22;;
29402;SDS011;16382;59.942;30.472;2023-02-12T15:36:55;5.37;;;2.67;;
29402;SDS011;16382;59.942;30.472;2023-02-12T15:39:30;10.98;;;3.03;;
29402;SDS011;16382;59.942;30.472;2023-02-12T15:42:20;8.52;;;2.95;;
29402;SDS011;16382;59.942;30.472;2023-02-12T15:44:49;6.53;;;2.55;;
29402;SDS011;16382;59.942;30.472;2023-02-12T15:47:16;10.18;;;2.75;;
29402;SDS011;16382;59.942;30.472;2023-02-12T15:49:49;8.80;;;3.10;;
29402;SDS011;16382;59.942;30.472;2023-02-12T15:52:19;4.95;;;2.40;;